Latest Weather Observations for Cape Nelson

IDV60801

Issued at 9:22 pm EST Sunday 3 July 2022 (issued every 10 minutes, with the page automatically refreshed every 10 minutes)

About weather observations | Map of weather stations | Latest weather observations for VIC | Other Formats
Station Details ID: 090184 Name: CAPE NELSON LIGHTHOUSE Lat: -38.43 Lon: 141.54 Height: 45.4 m
Data from the previous 72 hours. | See also: Recent months at Cape Nelson
Date/Time
EST
Temp
°C
App
Temp
°C
Dew
Point
°C
Rel
Hum
%
Delta-T
°C
Wind Press
QNH
hPa
Press
MSL
hPa
Rain since
9am
mm
Dir  Spd
km/h
Gust
km/h
Spd
kts
Gust
kts
03/09:00pm 12.6 8.0 5.8 63 3.2 ESE 19 30 10 16 1029.3 1029.3 0.0
03/08:30pm 12.3 8.1 5.5 63 3.2 SE 17 30 9 16 1029.4 1029.4 0.0
03/08:00pm 12.2 7.3 5.1 62 3.2 ESE 20 32 11 17 1029.3 1029.3 0.0
03/07:30pm 12.0 8.3 4.7 61 3.3 SE 13 41 7 22 1029.4 1029.4 0.0
03/07:00pm 12.0 11.0 5.4 64 3.0 CALM 0 0 0 0 1029.2 1029.2 0.0
03/06:30pm 11.9 10.8 5.1 63 3.1 CALM 0 0 0 0 1029.1 1029.1 0.0
03/06:00pm 11.9 7.0 4.9 62 3.2 SE 20 35 11 19 1029.0 1029.0 0.0
03/05:30pm 11.8 6.4 4.5 61 3.3 SE 22 35 12 19 1028.9 1028.9 0.0
03/05:00pm 11.8 10.3 5.2 64 3.0 SE 2 30 1 16 1028.8 1028.8 0.0
03/04:30pm 11.8 10.3 5.2 64 3.0 SE 2 26 1 14 1028.7 1028.7 0.0
03/04:00pm 11.9 6.4 5.8 66 2.8 SE 24 37 13 20 1028.7 1028.7 0.0
03/03:30pm 11.9 7.2 5.1 63 3.1 SE 19 28 10 15 1028.7 1028.7 0.0
03/03:00pm 12.1 6.9 5.5 64 3.0 SE 22 30 12 16 1028.7 1028.7 0.0
03/02:30pm 12.1 6.8 4.8 61 3.3 SSE 22 33 12 18 1028.8 1028.8 0.0
03/02:00pm 12.2 7.4 5.4 63 3.1 SE 20 32 11 17 1028.9 1028.9 0.0
03/01:30pm 12.1 11.0 5.0 62 3.3 CALM 0 0 0 0 1029.2 1029.2 0.0
03/01:00pm 12.0 10.9 5.0 62 3.2 CALM 0 0 0 0 1029.5 1029.5 0.0
03/12:30pm 12.0 10.9 5.2 63 3.1 CALM 0 0 0 0 1029.9 1029.9 0.0
03/12:00pm 11.9 10.9 5.5 65 2.9 CALM 0 0 0 0 1030.3 1030.3 0.0
03/11:30am 11.6 10.6 5.7 67 2.7 CALM 0 0 0 0 1030.7 1030.7 0.0
03/11:00am 11.5 10.5 5.6 67 2.7 CALM 0 0 0 0 1030.9 1030.9 0.0
03/10:30am 11.4 10.6 6.3 71 2.4 CALM 0 0 0 0 1030.8 1030.8 0.0
03/10:00am 11.4 10.4 5.7 68 2.6 CALM 0 0 0 0 1030.8 1030.8 0.0
03/09:30am 11.2 10.1 5.3 67 2.7 CALM 0 0 0 0 1030.7 1030.7 0.0
03/09:00am 11.3 10.3 5.4 67 2.7 CALM 0 0 0 0 1030.4 1030.4 1.0
03/08:30am 11.3 10.3 5.8 69 2.6 CALM 0 0 0 0 1030.3 1030.3 1.0
03/08:00am 11.3 10.4 6.0 70 2.5 CALM 0 0 0 0 1030.2 1030.2 1.0
03/07:30am 11.1 10.1 5.4 68 2.6 CALM 0 0 0 0 1030.2 1030.2 1.0
03/07:00am 11.1 10.0 5.2 67 2.7 CALM 0 0 0 0 1029.9 1029.9 1.0
03/06:30am 11.1 9.9 4.8 65 2.9 CALM 0 0 0 0 1029.7 1029.7 1.0
03/06:00am 11.3 10.3 5.6 68 2.6 CALM 0 0 0 0 1029.4 1029.4 1.0
03/05:30am 11.2 10.3 6.1 71 2.4 CALM 0 0 0 0 1029.4 1029.4 1.0
03/05:00am 11.3 10.5 6.4 72 2.3 CALM 0 0 0 0 1029.4 1029.4 1.0
03/04:30am 10.9 10.0 6.1 72 2.2 CALM 0 0 0 0 1029.6 1029.6 1.0
03/04:00am 11.0 9.8 4.7 65 2.8 CALM 0 0 0 0 1029.7 1029.7 1.0
03/03:30am 11.1 10.1 5.4 68 2.6 CALM 0 0 0 0 1029.6 1029.6 1.0
03/03:00am 11.1 9.9 4.8 65 2.8 CALM 0 0 0 0 1029.8 1029.8 1.0
03/02:30am 11.1 10.1 5.4 68 2.6 CALM 0 0 0 0 1029.9 1029.9 1.0
03/02:00am 10.8 9.8 5.6 70 2.4 CALM 0 0 0 0 1030.0 1030.0 1.0
03/01:30am 10.7 9.8 6.1 73 2.1 CALM 0 0 0 0 1030.0 1030.0 1.0
03/01:00am 10.4 9.5 6.0 74 2.0 CALM 0 0 0 0 1030.2 1030.2 1.0
03/12:30am 10.8 9.9 6.2 73 2.2 CALM 0 0 0 0 1030.4 1030.4 1.0
03/12:00am 10.7 9.5 4.8 67 2.6 CALM 0 0 0 0 1030.6 1030.6 1.0
 
Date/Time
EST
Temp
°C
App
Temp
°C
Dew
Point
°C
Rel
Hum
%
Delta-T
°C
Wind Press
QNH
hPa
Press
MSL
hPa
Rain since
9am
mm
Dir  Spd
km/h
Gust
km/h
Spd
kts
Gust
kts
02/11:30pm 10.5 9.4 4.9 68 2.5 CALM 0 0 0 0 1030.8 1030.8 1.0
02/11:00pm 10.4 9.2 4.5 67 2.6 CALM 0 0 0 0 1030.8 1030.8 1.0
02/10:30pm 10.1 8.9 4.7 69 2.4 CALM 0 0 0 0 1030.8 1030.8 1.0
02/10:00pm 10.4 9.3 5.2 70 2.3 CALM 0 0 0 0 1030.8 1030.8 1.0
02/09:30pm 10.3 9.3 5.5 72 2.2 CALM 0 0 0 0 1030.8 1030.8 1.0
02/09:00pm 10.3 9.3 5.7 73 2.1 CALM 0 0 0 0 1030.9 1030.9 1.0
02/08:30pm 10.1 9.3 6.4 78 1.7 CALM 0 0 0 0 1030.9 1030.9 1.0
02/08:00pm 10.1 9.4 6.8 80 1.5 CALM 0 0 0 0 1030.8 1030.8 1.0
02/07:30pm 9.7 9.1 7.5 86 1.0 CALM 0 0 0 0 1030.8 1030.8 1.0
02/07:00pm 9.5 8.9 7.4 87 1.0 CALM 0 0 0 0 1030.6 1030.6 1.0
02/06:30pm 9.0 8.6 8.2 95 0.4 CALM 0 0 0 0 1030.7 1030.7 1.0
02/06:00pm 9.4 9.1 8.8 96 0.3 CALM 0 0 0 0 1030.6 1030.6 0.8
02/05:30pm 9.2 8.9 8.6 96 0.3 CALM 0 0 0 0 1030.5 1030.5 0.6
02/05:00pm 9.5 9.2 8.7 95 0.4 CALM 0 0 0 0 1030.6 1030.6 0.4
02/04:30pm 9.7 9.4 8.6 93 0.5 CALM 0 0 0 0 1030.7 1030.7 0.2
02/04:00pm 10.4 10.1 8.8 90 0.8 CALM 0 0 0 0 1030.6 1030.6 0.0
02/03:30pm 9.8 7.8 8.6 92 0.6 SSW 9 17 5 9 1030.7 1030.7 0.0
02/03:00pm 10.4 6.8 8.2 86 1.1 S 17 26 9 14 1030.6 1030.6 0.0
02/02:30pm 10.4 7.5 8.3 87 1.0 SE 13 20 7 11 1030.7 1030.7 0.0
02/02:00pm 10.4 8.2 7.8 84 1.2 SSE 9 15 5 8 1030.9 1030.9 0.0
02/01:30pm 10.8 6.6 7.5 80 1.6 S 19 24 10 13 1031.1 1031.1 0.0
02/01:00pm 11.4 8.2 6.9 74 2.1 S 13 20 7 11 1031.4 1031.4 0.0
02/12:30pm 10.7 7.0 6.3 74 2.1 S 15 22 8 12 1031.6 1031.6 0.0
02/12:00pm 12.1 8.8 6.6 69 2.6 SSE 13 24 7 13 1032.0 1032.0 0.0
02/11:30am 10.9 8.4 6.5 74 2.1 SSW 9 15 5 8 1032.4 1032.4 0.0
02/11:00am 10.0 7.4 6.0 76 1.8 S 9 24 5 13 1032.4 1032.4 0.0
02/10:30am 9.9 8.9 5.7 75 1.9 CALM 0 0 0 0 1032.4 1032.4 0.0
02/10:00am 9.3 8.4 6.0 80 1.5 CALM 0 0 0 0 1032.3 1032.3 0.0
02/09:30am 9.5 8.8 6.9 84 1.2 CALM 0 0 0 0 1032.1 1032.1 0.0
02/09:00am 9.5 8.6 6.2 80 1.5 CALM 0 0 0 0 1032.1 1032.1 2.6
02/08:30am 9.1 8.4 7.1 87 0.9 CALM 0 0 0 0 1032.1 1032.1 2.6
02/08:00am 8.9 8.2 7.0 88 0.9 CALM 0 0 0 0 1032.1 1032.1 2.6
02/07:30am 8.7 8.0 6.8 88 0.9 CALM 0 0 0 0 1032.0 1032.0 2.6
02/07:00am 8.7 7.9 6.3 85 1.1 CALM 0 0 0 0 1031.9 1031.9 2.6
02/06:30am 9.1 8.2 6.0 81 1.4 CALM 0 0 0 0 1031.8 1031.8 2.6
02/06:00am 9.0 8.1 6.1 82 1.3 CALM 0 0 0 0 1031.6 1031.6 2.6
02/05:30am 8.9 8.1 6.5 85 1.1 CALM 0 0 0 0 1031.4 1031.4 2.4
02/05:00am 8.4 7.7 6.9 90 0.7 CALM 0 0 0 0 1031.6 1031.6 2.4
02/04:30am 9.2 8.3 6.1 81 1.4 CALM 0 0 0 0 1031.6 1031.6 2.2
02/04:00am 9.0 8.2 6.4 84 1.2 CALM 0 0 0 0 1031.7 1031.7 2.2
02/03:30am 9.0 8.3 6.8 86 1.0 CALM 0 0 0 0 1031.7 1031.7 2.2
02/03:00am 8.7 8.1 7.2 90 0.7 CALM 0 0 0 0 1031.9 1031.9 2.2
02/02:30am 9.0 8.2 6.3 83 1.2 CALM 0 0 0 0 1032.1 1032.1 2.0
02/02:00am 8.4 7.6 6.7 89 0.8 CALM 0 0 0 0 1032.1 1032.1 2.0
02/01:30am 8.8 8.1 6.9 88 0.9 CALM 0 0 0 0 1032.1 1032.1 2.0
02/01:00am 8.7 7.2 7.0 89 0.8 S 4 28 2 15 1032.4 1032.4 2.0
02/12:30am 8.8 8.0 6.6 86 1.0 CALM 0 15 0 8 1032.4 1032.4 1.8
02/12:00am 8.8 8.2 7.3 90 0.7 CALM 0 0 0 0 1032.5 1032.5 1.8
 
Date/Time
EST
Temp
°C
App
Temp
°C
Dew
Point
°C
Rel
Hum
%
Delta-T
°C
Wind Press
QNH
hPa
Press
MSL
hPa
Rain since
9am
mm
Dir  Spd
km/h
Gust
km/h
Spd
kts
Gust
kts
01/11:30pm 9.5 8.8 6.8 83 1.3 CALM 0 24 0 13 1032.3 1032.3 1.6
01/11:00pm 9.5 8.6 6.2 80 1.5 CALM 0 17 0 9 1032.3 1032.3 1.6
01/10:30pm 9.6 8.9 7.0 84 1.2 CALM 0 0 0 0 1032.4 1032.4 1.6
01/10:00pm 9.7 8.8 6.1 78 1.6 CALM 0 0 0 0 1032.5 1032.5 1.4
01/09:30pm 9.5 8.4 6.8 83 1.3 S 2 19 1 10 1032.6 1032.6 1.4
01/09:00pm 9.2 8.6 7.2 87 0.9 CALM 0 22 0 12 1032.6 1032.6 1.4
01/08:30pm 9.6 9.0 7.2 85 1.1 CALM 0 20 0 11 1032.6 1032.6 1.4
01/08:00pm 9.6 7.1 6.7 82 1.3 S 9 24 5 13 1032.5 1032.5 1.4
01/07:30pm 9.6 6.4 7.0 84 1.2 S 13 22 7 12 1032.3 1032.3 1.4
01/07:00pm 9.5 8.5 7.3 86 1.0 S 2 22 1 12 1032.1 1032.1 1.4
01/06:30pm 9.9 9.1 6.4 79 1.6 CALM 0 0 0 0 1032.0 1032.0 1.4
01/06:00pm 9.6 9.0 7.4 86 1.0 CALM 0 17 0 9 1031.9 1031.9 1.4
01/05:30pm 9.8 9.1 6.9 82 1.4 CALM 0 2 0 1 1031.9 1031.9 1.4
01/05:00pm 9.9 9.3 7.5 85 1.1 CALM 0 0 0 0 1031.8 1031.8 1.4
01/04:30pm 9.8 9.1 6.9 82 1.4 CALM 0 0 0 0 1031.8 1031.8 1.4
01/04:00pm 10.2 9.5 7.1 81 1.5 CALM 0 0 0 0 1031.9 1031.9 1.4
01/03:30pm 9.9 8.4 8.3 90 0.8 SSE 6 28 3 15 1031.7 1031.7 1.4
01/03:00pm 9.3 5.0 7.9 91 0.7 S 20 30 11 16 1031.9 1031.9 1.4
01/02:30pm 9.9 5.4 8.5 91 0.7 SSE 22 30 12 16 1032.0 1032.0 1.4
01/02:00pm 10.0 5.8 8.1 88 0.9 S 20 28 11 15 1032.0 1032.0 1.4
01/01:30pm 10.0 8.1 9.2 95 0.4 SSE 9 20 5 11 1032.3 1032.3 1.4
01/01:00pm 10.0 9.3 8.6 91 0.7 - 2 24 1 13 1032.5 1032.5 1.2
01/12:30pm 10.3 5.6 7.7 84 1.3 S 22 28 12 15 1032.7 1032.7 1.0
01/12:00pm 10.5 6.1 7.4 81 1.5 S 20 26 11 14 1032.8 1032.8 1.0
01/11:30am 9.7 5.4 7.8 88 0.9 S 20 30 11 16 1032.7 1032.7 1.0
01/11:00am 9.9 6.5 7.8 87 1.0 S 15 20 8 11 1033.0 1033.0 1.0
01/10:30am 9.7 7.3 8.6 93 0.5 SE 11 24 6 13 1032.9 1032.9 1.0
01/10:00am 9.2 6.7 8.4 95 0.4 ESE 11 17 6 9 1032.9 1032.9 1.0
01/09:30am 9.8 7.9 8.9 94 0.4 S 9 13 5 7 1032.8 1032.8 0.2
01/09:00am 9.1 5.8 7.9 92 0.6 SE 15 22 8 12 1032.8 1032.8 10.4
01/08:30am 10.0 4.6 6.3 78 1.7 SSE 24 32 13 17 1032.4 1032.4 10.2
01/08:00am 9.9 4.0 7.5 85 1.1 SSE 28 37 15 20 1032.4 1032.4 10.2
01/07:30am 10.5 4.3 7.7 83 1.3 S 30 41 16 22 1032.3 1032.3 10.0
01/07:00am 11.3 6.5 5.8 69 2.5 S 20 33 11 18 1031.7 1031.7 10.0
01/06:30am 11.0 6.0 4.7 65 2.9 SSE 20 32 11 17 1031.6 1031.6 10.0
01/06:00am 10.6 5.5 3.9 63 2.9 SSE 20 28 11 15 1031.4 1031.4 10.0
01/05:30am 10.9 6.2 5.0 67 2.7 SE 19 26 10 14 1031.1 1031.1 10.0
01/05:00am 10.9 6.5 4.6 65 2.8 SE 17 22 9 12 1030.9 1030.9 10.0
01/04:30am 10.7 5.8 4.2 64 2.9 SSE 19 26 10 14 1030.9 1030.9 10.0
01/04:00am 10.8 5.9 4.3 64 2.9 SE 19 28 10 15 1031.0 1031.0 10.0
01/03:30am 11.0 6.1 5.1 67 2.7 SSE 20 37 11 20 1030.8 1030.8 10.0
01/03:00am 11.0 5.3 4.9 66 2.7 SSE 24 33 13 18 1030.9 1030.9 10.0
01/02:30am 11.1 5.4 4.8 65 2.9 SSE 24 35 13 19 1031.0 1031.0 10.0
01/02:00am 11.2 6.5 5.9 70 2.4 SE 20 30 11 16 1030.8 1030.8 10.0
01/01:30am 11.1 6.8 5.2 67 2.7 ESE 17 30 9 16 1030.7 1030.7 10.0
01/01:00am 11.1 6.1 4.8 65 2.8 SE 20 32 11 17 1030.7 1030.7 10.0
01/12:30am 11.2 6.0 5.5 68 2.6 SE 22 33 12 18 1030.8 1030.8 10.0
01/12:00am 11.2 5.5 4.9 65 2.8 SE 24 35 13 19 1030.8 1030.8 10.0
 
Date/Time
EST
Temp
°C
App
Temp
°C
Dew
Point
°C
Rel
Hum
%
Delta-T
°C
Wind Press
QNH
hPa
Press
MSL
hPa
Rain since
9am
mm
Dir  Spd
km/h
Gust
km/h
Spd
kts
Gust
kts
30/11:30pm 11.6 5.3 5.9 68 2.7 SSE 28 39 15 21 1030.7 1030.7 10.0
30/11:00pm 11.3 6.8 4.3 62 3.1 SE 17 28 9 15 1030.5 1030.5 10.0
30/10:30pm 11.6 5.9 5.0 64 3.0 SSE 24 35 13 19 1030.3 1030.3 10.0
30/10:00pm 11.7 5.1 6.2 69 2.6 SE 30 41 16 22 1030.2 1030.2 10.0
30/09:30pm 12.0 5.8 6.1 67 2.8 SSE 28 39 15 21 1029.9 1029.9 10.0

Other formats

Comma delimited format used in spreadsheet applications
http://www.bom.gov.au/fwo/IDV60801/IDV60801.94826.axf

JavaScript Object Notation format (JSON) in row-major order
http://www.bom.gov.au/fwo/IDV60801/IDV60801.94826.json

Data quality

Most of these data are generated automatically and are frequently updated. Quality checks on data are not normally performed. It is possible for incorrect values to appear. Refer to information at About Latest Weather Observations and please check the disclaimer before using these data.